createdAt,value
2022-12-17T00:05:25.975Z,79.47
2022-12-17T00:11:06.829Z,79.43
2022-12-17T00:16:48.439Z,79.86
2022-12-17T00:22:30.171Z,80.08
2022-12-17T00:28:11.530Z,79.98
2022-12-17T00:33:52.390Z,79.98
2022-12-17T00:39:33.119Z,80.30
2022-12-17T00:45:13.649Z,80.33
2022-12-17T00:50:54.820Z,80.42
2022-12-17T00:56:38.666Z,80.15
2022-12-17T01:02:20.365Z,80.34
2022-12-17T01:08:01.651Z,80.02
2022-12-17T01:13:42.095Z,80.17
2022-12-17T01:19:23.411Z,80.67
2022-12-17T01:25:06.085Z,80.66
2022-12-17T01:30:47.024Z,80.67
2022-12-17T01:36:28.312Z,80.72
2022-12-17T01:42:09.890Z,80.69
2022-12-17T01:47:51.799Z,81.15
2022-12-17T01:53:32.436Z,81.13
2022-12-17T01:59:13.965Z,81.55
2022-12-17T02:04:55.631Z,81.47
2022-12-17T02:10:42.845Z,81.69
2022-12-17T02:16:27.906Z,81.81
2022-12-17T02:22:09.141Z,82.06
2022-12-17T02:28:04.242Z,82.19
2022-12-17T02:33:45.291Z,82.35
2022-12-17T02:39:29.341Z,82.21
2022-12-17T02:45:10.418Z,82.24
2022-12-17T02:50:50.801Z,82.15
2022-12-17T02:56:32.113Z,82.27
2022-12-17T03:02:12.703Z,82.45
2022-12-17T03:07:54.425Z,82.20
2022-12-17T03:13:42.209Z,82.52
2022-12-17T03:19:23.531Z,82.36
2022-12-17T03:25:04.220Z,82.02
2022-12-17T03:30:48.879Z,81.96
2022-12-17T03:36:30.322Z,82.08
2022-12-17T03:42:12.346Z,82.07
2022-12-17T03:47:54.398Z,82.19
2022-12-17T03:53:36.246Z,82.45
2022-12-17T03:59:17.166Z,82.57
2022-12-17T04:04:57.915Z,82.71
2022-12-17T04:10:38.757Z,82.72
2022-12-17T04:16:19.951Z,82.93
2022-12-17T04:21:57.767Z,82.93
2022-12-17T04:27:35.389Z,82.73
2022-12-17T04:33:16.375Z,82.99
2022-12-17T04:38:57.029Z,83.17
2022-12-17T04:44:37.739Z,83.35
2022-12-17T04:50:19.597Z,83.20
2022-12-17T04:56:00.843Z,83.33
2022-12-17T05:01:42.053Z,83.50
2022-12-17T05:07:23.134Z,83.43
2022-12-17T05:13:03.870Z,83.48
2022-12-17T05:18:44.536Z,83.35
2022-12-17T05:24:26.291Z,83.59
2022-12-17T05:30:07.525Z,83.56
2022-12-17T05:35:49.325Z,83.60
2022-12-17T05:41:30.133Z,83.42
2022-12-17T05:47:10.845Z,83.54
2022-12-17T05:52:51.558Z,83.62
2022-12-17T05:58:32.484Z,83.73
2022-12-17T06:04:13.685Z,83.59
2022-12-17T06:09:55.597Z,83.42
2022-12-17T06:15:36.181Z,83.67
2022-12-17T06:21:16.847Z,83.97
2022-12-17T06:26:57.657Z,84.30
2022-12-17T06:32:38.675Z,84.35
2022-12-17T06:38:20.875Z,84.51
2022-12-17T06:44:02.586Z,84.37
2022-12-17T06:49:43.121Z,84.54
2022-12-17T06:55:24.756Z,84.56
2022-12-17T07:01:05.590Z,84.54
2022-12-17T07:06:46.960Z,84.44
2022-12-17T07:12:27.682Z,84.57
2022-12-17T07:18:14.028Z,84.32
2022-12-17T07:23:55.352Z,84.40
2022-12-17T07:29:36.945Z,84.06
2022-12-17T07:35:17.523Z,84.10
2022-12-17T07:40:58.435Z,84.19
2022-12-17T07:46:39.902Z,84.13
2022-12-17T07:52:21.407Z,84.09
2022-12-17T07:58:02.135Z,84.49
2022-12-17T08:03:42.937Z,84.33
2022-12-17T08:09:24.062Z,84.40
2022-12-17T08:15:04.767Z,84.33
2022-12-17T08:20:45.921Z,84.51
2022-12-17T08:26:28.190Z,84.43
2022-12-17T08:32:15.866Z,84.22
2022-12-17T08:37:56.788Z,84.02
2022-12-17T08:43:37.684Z,83.99
2022-12-17T08:49:18.791Z,83.83
2022-12-17T08:55:00.447Z,83.89
2022-12-17T09:00:44.642Z,83.88
2022-12-17T09:06:25.568Z,83.83
2022-12-17T09:12:06.996Z,83.80
2022-12-17T09:17:50.281Z,83.76
2022-12-17T09:23:33.650Z,83.59
2022-12-17T09:29:14.940Z,84.07
2022-12-17T09:34:56.579Z,83.39
2022-12-17T09:40:41.379Z,83.26
2022-12-17T09:46:24.359Z,83.24
2022-12-17T09:52:13.463Z,83.34
2022-12-17T09:57:55.008Z,83.10
2022-12-17T10:03:37.847Z,83.00
2022-12-17T10:09:19.550Z,82.96
2022-12-17T10:15:00.269Z,82.57
2022-12-17T10:20:41.613Z,82.99
2022-12-17T10:26:22.206Z,82.88
2022-12-17T10:32:02.846Z,82.81
2022-12-17T10:37:43.777Z,82.64
2022-12-17T10:43:40.078Z,82.54
2022-12-17T10:49:40.165Z,82.43
2022-12-17T10:55:21.177Z,82.74
2022-12-17T11:01:02.051Z,82.36
2022-12-17T11:06:50.111Z,82.36
2022-12-17T11:12:31.509Z,81.56
2022-12-17T11:18:12.994Z,81.30
2022-12-17T11:23:53.397Z,81.25
2022-12-17T11:29:33.980Z,81.16
2022-12-17T11:35:22.899Z,81.01
2022-12-17T11:41:05.474Z,81.31
2022-12-17T11:47:12.979Z,80.96
2022-12-17T11:52:57.239Z,80.76
2022-12-17T11:58:49.325Z,80.32
2022-12-17T12:04:40.488Z,79.87
2022-12-17T12:10:22.329Z,79.48
2022-12-17T12:16:04.140Z,79.65
2022-12-17T12:21:50.324Z,79.52
2022-12-17T12:27:43.287Z,79.22
2022-12-17T12:33:26.902Z,79.31
2022-12-17T12:39:10.077Z,79.06
2022-12-17T12:44:56.664Z,78.82
2022-12-17T12:50:43.286Z,78.05
2022-12-17T12:56:42.543Z,78.05
2022-12-17T13:02:31.723Z,78.01
2022-12-17T13:08:03.310Z,78.23
2022-12-17T13:13:38.006Z,77.98
2022-12-17T13:19:03.417Z,77.78
2022-12-17T13:24:27.938Z,77.82
2022-12-17T13:29:52.880Z,77.41
2022-12-17T13:35:23.410Z,76.61
2022-12-17T13:41:16.513Z,76.44
2022-12-17T13:46:47.283Z,76.91
2022-12-17T13:52:17.116Z,76.70
2022-12-17T13:57:40.620Z,76.58
2022-12-17T14:03:13.757Z,77.03
2022-12-17T14:08:37.822Z,77.17
2022-12-17T14:14:01.864Z,77.04
2022-12-17T14:19:26.226Z,76.33
2022-12-17T14:24:49.929Z,76.36
2022-12-17T14:30:23.855Z,76.46
2022-12-17T14:35:47.433Z,76.57
2022-12-17T14:41:27.287Z,76.78
2022-12-17T14:46:50.999Z,76.83
2022-12-17T14:52:15.267Z,77.51
2022-12-17T14:57:38.816Z,77.41
2022-12-17T15:03:03.072Z,77.27
2022-12-17T15:08:27.164Z,77.73
2022-12-17T15:13:56.335Z,77.73
2022-12-17T15:19:21.428Z,77.22
2022-12-17T15:24:48.174Z,77.16
2022-12-17T15:30:14.631Z,77.26
2022-12-17T15:35:38.831Z,77.26
2022-12-17T15:41:24.048Z,77.10
2022-12-17T15:47:03.659Z,77.29
2022-12-17T15:52:27.740Z,77.43
2022-12-17T15:57:51.835Z,78.02
2022-12-17T16:03:15.683Z,77.94
2022-12-17T16:08:40.619Z,78.16
2022-12-17T16:14:05.810Z,78.00
2022-12-17T16:19:30.119Z,77.91
2022-12-17T16:24:53.644Z,78.18
2022-12-17T16:30:17.307Z,77.94
2022-12-17T16:35:41.250Z,78.04
2022-12-17T16:41:05.804Z,78.14
2022-12-17T16:46:34.553Z,78.30
2022-12-17T16:51:59.839Z,78.69
2022-12-17T16:57:24.064Z,78.71
2022-12-17T17:02:53.079Z,78.56
2022-12-17T17:08:17.310Z,78.45
2022-12-17T17:13:41.822Z,78.06
2022-12-17T17:19:07.772Z,78.49
2022-12-17T17:24:32.405Z,78.57
2022-12-17T17:30:01.379Z,78.73
2022-12-17T17:35:27.338Z,78.57
2022-12-17T17:40:50.899Z,78.91
2022-12-17T17:46:19.503Z,79.08
2022-12-17T17:57:28.583Z,79.43
2022-12-17T18:02:52.599Z,79.36
2022-12-17T18:08:16.678Z,79.54
2022-12-17T18:13:58.529Z,79.34
2022-12-17T18:19:23.101Z,79.21
2022-12-17T18:24:47.192Z,79.12
2022-12-17T18:30:11.922Z,79.12
2022-12-17T18:35:35.466Z,78.90
2022-12-17T18:40:59.548Z,79.13
2022-12-17T18:46:23.817Z,79.27
2022-12-17T18:51:48.881Z,79.71
2022-12-17T18:57:13.341Z,80.08
2022-12-17T19:02:38.869Z,79.90
2022-12-17T19:08:07.336Z,79.97
2022-12-17T19:13:41.605Z,79.93
2022-12-17T19:19:21.936Z,80.00
2022-12-17T19:24:51.650Z,80.21
2022-12-17T19:30:17.598Z,80.14
2022-12-17T19:35:45.718Z,80.70
2022-12-17T19:41:28.034Z,80.65
2022-12-17T19:46:52.476Z,80.44
2022-12-17T19:52:16.696Z,80.47
2022-12-17T19:57:40.563Z,80.69
2022-12-17T20:03:05.141Z,81.00
2022-12-17T20:08:29.860Z,80.88
2022-12-17T20:13:55.049Z,80.96
2022-12-17T20:19:20.547Z,81.16
2022-12-17T20:24:44.978Z,81.20
2022-12-17T20:30:08.846Z,81.47
2022-12-17T20:35:33.186Z,81.38
2022-12-17T20:40:58.160Z,81.34
2022-12-17T20:46:22.278Z,81.35
2022-12-17T20:51:45.865Z,81.30
2022-12-17T20:57:10.085Z,81.27
2022-12-17T21:02:34.273Z,81.27
2022-12-17T21:07:58.374Z,81.35
2022-12-17T21:13:32.690Z,81.64
2022-12-17T21:18:57.052Z,81.43
2022-12-17T21:24:20.935Z,81.35
2022-12-17T21:29:44.795Z,81.12
2022-12-17T21:35:09.192Z,81.31
2022-12-17T21:40:34.008Z,81.57
2022-12-17T21:45:59.304Z,81.77
2022-12-17T21:51:23.368Z,81.54
2022-12-17T21:56:47.683Z,81.67
2022-12-17T22:02:11.994Z,81.64
2022-12-17T22:07:47.780Z,81.67
2022-12-17T22:13:33.054Z,81.60
2022-12-17T22:18:57.177Z,81.91
2022-12-17T22:24:22.341Z,81.73
2022-12-17T22:30:03.755Z,81.59
2022-12-17T22:38:09.011Z,81.53
2022-12-17T22:44:34.958Z,81.39
2022-12-17T22:47:19.972Z,81.10
2022-12-17T22:52:44.072Z,81.18
2022-12-17T22:58:08.157Z,80.89
2022-12-17T23:03:32.228Z,80.91
2022-12-17T23:08:56.235Z,80.49
2022-12-17T23:14:20.691Z,80.80
2022-12-17T23:19:44.918Z,81.06
2022-12-17T23:25:09.846Z,81.09
2022-12-17T23:30:33.428Z,81.13
2022-12-17T23:36:04.888Z,81.10
2022-12-17T23:41:30.204Z,81.21
2022-12-17T23:46:54.252Z,81.42
2022-12-17T23:52:18.583Z,81.38
2022-12-17T23:57:42.469Z,81.33
